sensor_id;sensor_type;location;lat;lon;timestamp;P1;durP1;ratioP1;P2;durP2;ratioP2
62153;SDS011;48140;45.486;9.226;2023-04-29T01:05:41;7.07;;;3.08;;
62153;SDS011;48140;45.486;9.226;2023-04-29T01:08:56;6.57;;;2.97;;
62153;SDS011;48140;45.486;9.226;2023-04-29T01:11:29;7.18;;;3.55;;
62153;SDS011;48140;45.486;9.226;2023-04-29T01:13:59;8.00;;;3.97;;
62153;SDS011;48140;45.486;9.226;2023-04-29T01:16:37;9.75;;;3.72;;
62153;SDS011;48140;45.486;9.226;2023-04-29T01:19:14;5.32;;;2.92;;
62153;SDS011;48140;45.486;9.226;2023-04-29T01:21:57;6.95;;;3.60;;
62153;SDS011;48140;45.486;9.226;2023-04-29T01:24:22;5.95;;;3.47;;
62153;SDS011;48140;45.486;9.226;2023-04-29T01:26:51;5.32;;;3.00;;
62153;SDS011;48140;45.486;9.226;2023-04-29T01:29:25;7.20;;;3.47;;
62153;SDS011;48140;45.486;9.226;2023-04-29T01:32:03;7.45;;;3.50;;
62153;SDS011;48140;45.486;9.226;2023-04-29T01:34:33;6.15;;;3.13;;
62153;SDS011;48140;45.486;9.226;2023-04-29T01:37:32;4.75;;;3.42;;
62153;SDS011;48140;45.486;9.226;2023-04-29T01:40:48;4.53;;;2.97;;
62153;SDS011;48140;45.486;9.226;2023-04-29T01:43:01;7.72;;;3.63;;
62153;SDS011;48140;45.486;9.226;2023-04-29T01:45:29;5.32;;;3.33;;
62153;SDS011;48140;45.486;9.226;2023-04-29T01:47:58;7.80;;;3.65;;
62153;SDS011;48140;45.486;9.226;2023-04-29T01:50:24;6.00;;;3.45;;
62153;SDS011;48140;45.486;9.226;2023-04-29T01:52:50;6.40;;;3.72;;
62153;SDS011;48140;45.486;9.226;2023-04-29T01:55:16;10.30;;;4.32;;
62153;SDS011;48140;45.486;9.226;2023-04-29T01:57:41;6.05;;;3.47;;
62153;SDS011;48140;45.486;9.226;2023-04-29T02:00:08;6.90;;;3.53;;
62153;SDS011;48140;45.486;9.226;2023-04-29T02:02:35;6.53;;;4.00;;
62153;SDS011;48140;45.486;9.226;2023-04-29T02:05:01;9.07;;;3.60;;
62153;SDS011;48140;45.486;9.226;2023-04-29T02:07:26;6.38;;;3.72;;
62153;SDS011;48140;45.486;9.226;2023-04-29T02:09:52;8.07;;;3.42;;
62153;SDS011;48140;45.486;9.226;2023-04-29T02:12:17;6.82;;;3.58;;
62153;SDS011;48140;45.486;9.226;2023-04-29T02:14:43;6.40;;;3.75;;
62153;SDS011;48140;45.486;9.226;2023-04-29T02:17:11;6.40;;;3.60;;
62153;SDS011;48140;45.486;9.226;2023-04-29T02:19:36;5.97;;;3.30;;
62153;SDS011;48140;45.486;9.226;2023-04-29T02:22:02;5.82;;;3.53;;
62153;SDS011;48140;45.486;9.226;2023-04-29T02:24:28;9.13;;;3.55;;
62153;SDS011;48140;45.486;9.226;2023-04-29T02:26:53;8.07;;;3.80;;
62153;SDS011;48140;45.486;9.226;2023-04-29T02:29:19;7.22;;;3.20;;
62153;SDS011;48140;45.486;9.226;2023-04-29T02:31:45;7.68;;;3.50;;
62153;SDS011;48140;45.486;9.226;2023-04-29T02:34:11;5.45;;;3.53;;
62153;SDS011;48140;45.486;9.226;2023-04-29T02:36:36;5.30;;;3.58;;
62153;SDS011;48140;45.486;9.226;2023-04-29T02:39:02;6.20;;;3.33;;
62153;SDS011;48140;45.486;9.226;2023-04-29T02:41:28;6.72;;;4.00;;
62153;SDS011;48140;45.486;9.226;2023-04-29T02:43:54;8.27;;;3.47;;
62153;SDS011;48140;45.486;9.226;2023-04-29T02:46:20;7.10;;;3.85;;
62153;SDS011;48140;45.486;9.226;2023-04-29T02:48:46;7.30;;;3.65;;
62153;SDS011;48140;45.486;9.226;2023-04-29T02:51:11;6.80;;;3.78;;
62153;SDS011;48140;45.486;9.226;2023-04-29T02:53:38;8.07;;;3.78;;
62153;SDS011;48140;45.486;9.226;2023-04-29T02:56:04;7.10;;;3.60;;
62153;SDS011;48140;45.486;9.226;2023-04-29T02:58:30;7.05;;;3.33;;
62153;SDS011;48140;45.486;9.226;2023-04-29T03:00:55;6.13;;;3.58;;
62153;SDS011;48140;45.486;9.226;2023-04-29T03:03:25;6.15;;;3.30;;
62153;SDS011;48140;45.486;9.226;2023-04-29T03:05:50;5.75;;;3.25;;
62153;SDS011;48140;45.486;9.226;2023-04-29T03:08:16;8.05;;;3.63;;
62153;SDS011;48140;45.486;9.226;2023-04-29T03:10:42;7.90;;;3.55;;
62153;SDS011;48140;45.486;9.226;2023-04-29T03:13:08;9.65;;;3.40;;
62153;SDS011;48140;45.486;9.226;2023-04-29T03:15:34;9.55;;;3.67;;
62153;SDS011;48140;45.486;9.226;2023-04-29T03:17:59;5.25;;;3.45;;
62153;SDS011;48140;45.486;9.226;2023-04-29T03:20:26;6.20;;;3.65;;
62153;SDS011;48140;45.486;9.226;2023-04-29T03:22:52;7.57;;;3.65;;
62153;SDS011;48140;45.486;9.226;2023-04-29T03:25:17;7.65;;;3.97;;
62153;SDS011;48140;45.486;9.226;2023-04-29T03:27:43;6.88;;;3.53;;
62153;SDS011;48140;45.486;9.226;2023-04-29T03:30:09;8.90;;;3.78;;
62153;SDS011;48140;45.486;9.226;2023-04-29T03:32:34;8.77;;;4.20;;
62153;SDS011;48140;45.486;9.226;2023-04-29T03:35:00;6.68;;;4.00;;
62153;SDS011;48140;45.486;9.226;2023-04-29T03:37:25;8.63;;;3.85;;
62153;SDS011;48140;45.486;9.226;2023-04-29T03:39:51;7.95;;;4.78;;
62153;SDS011;48140;45.486;9.226;2023-04-29T03:42:17;8.07;;;4.50;;
62153;SDS011;48140;45.486;9.226;2023-04-29T03:44:42;5.75;;;3.90;;
62153;SDS011;48140;45.486;9.226;2023-04-29T03:47:08;7.70;;;4.00;;
62153;SDS011;48140;45.486;9.226;2023-04-29T03:49:35;6.80;;;4.28;;
62153;SDS011;48140;45.486;9.226;2023-04-29T03:52:01;6.75;;;4.20;;
62153;SDS011;48140;45.486;9.226;2023-04-29T03:54:28;10.05;;;4.75;;
62153;SDS011;48140;45.486;9.226;2023-04-29T03:56:54;9.07;;;4.28;;
62153;SDS011;48140;45.486;9.226;2023-04-29T03:59:20;8.23;;;4.13;;
62153;SDS011;48140;45.486;9.226;2023-04-29T04:01:46;7.35;;;4.50;;
62153;SDS011;48140;45.486;9.226;2023-04-29T04:04:11;8.82;;;4.40;;
62153;SDS011;48140;45.486;9.226;2023-04-29T04:06:37;7.88;;;4.60;;
62153;SDS011;48140;45.486;9.226;2023-04-29T04:09:03;7.28;;;4.38;;
62153;SDS011;48140;45.486;9.226;2023-04-29T04:11:28;8.27;;;4.22;;
62153;SDS011;48140;45.486;9.226;2023-04-29T04:13:55;8.88;;;4.50;;
62153;SDS011;48140;45.486;9.226;2023-04-29T04:16:21;14.00;;;4.40;;
62153;SDS011;48140;45.486;9.226;2023-04-29T04:18:46;8.02;;;4.15;;
62153;SDS011;48140;45.486;9.226;2023-04-29T04:21:12;8.30;;;4.50;;
62153;SDS011;48140;45.486;9.226;2023-04-29T04:23:37;7.10;;;3.97;;
62153;SDS011;48140;45.486;9.226;2023-04-29T04:26:06;12.10;;;4.75;;
62153;SDS011;48140;45.486;9.226;2023-04-29T04:28:32;6.90;;;4.13;;
62153;SDS011;48140;45.486;9.226;2023-04-29T04:30:58;7.53;;;4.03;;
62153;SDS011;48140;45.486;9.226;2023-04-29T04:33:24;8.38;;;4.85;;
62153;SDS011;48140;45.486;9.226;2023-04-29T04:35:50;10.30;;;4.50;;
62153;SDS011;48140;45.486;9.226;2023-04-29T04:38:16;6.32;;;3.88;;
62153;SDS011;48140;45.486;9.226;2023-04-29T04:40:42;6.72;;;3.63;;
62153;SDS011;48140;45.486;9.226;2023-04-29T04:43:08;7.30;;;3.55;;
62153;SDS011;48140;45.486;9.226;2023-04-29T04:45:33;8.52;;;4.28;;
62153;SDS011;48140;45.486;9.226;2023-04-29T04:47:59;11.75;;;4.10;;
62153;SDS011;48140;45.486;9.226;2023-04-29T04:50:28;7.97;;;4.10;;
62153;SDS011;48140;45.486;9.226;2023-04-29T04:52:55;10.15;;;4.15;;
62153;SDS011;48140;45.486;9.226;2023-04-29T04:55:22;7.00;;;3.67;;
62153;SDS011;48140;45.486;9.226;2023-04-29T04:57:48;8.40;;;3.67;;
62153;SDS011;48140;45.486;9.226;2023-04-29T05:00:14;5.75;;;3.80;;
62153;SDS011;48140;45.486;9.226;2023-04-29T05:02:40;8.95;;;3.40;;
62153;SDS011;48140;45.486;9.226;2023-04-29T05:05:06;6.40;;;4.15;;
62153;SDS011;48140;45.486;9.226;2023-04-29T05:07:32;6.22;;;3.80;;
62153;SDS011;48140;45.486;9.226;2023-04-29T05:10:01;7.55;;;3.78;;
62153;SDS011;48140;45.486;9.226;2023-04-29T05:12:27;7.95;;;3.75;;
62153;SDS011;48140;45.486;9.226;2023-04-29T05:14:55;8.32;;;3.90;;
62153;SDS011;48140;45.486;9.226;2023-04-29T05:17:21;8.15;;;3.97;;
62153;SDS011;48140;45.486;9.226;2023-04-29T05:19:48;9.32;;;4.20;;
62153;SDS011;48140;45.486;9.226;2023-04-29T05:22:14;8.32;;;4.47;;
62153;SDS011;48140;45.486;9.226;2023-04-29T05:24:39;8.50;;;4.72;;
62153;SDS011;48140;45.486;9.226;2023-04-29T05:27:05;6.85;;;3.72;;
62153;SDS011;48140;45.486;9.226;2023-04-29T05:29:30;7.18;;;4.30;;
62153;SDS011;48140;45.486;9.226;2023-04-29T05:32:01;6.63;;;3.97;;
62153;SDS011;48140;45.486;9.226;2023-04-29T05:34:27;6.93;;;3.88;;
62153;SDS011;48140;45.486;9.226;2023-04-29T05:36:52;7.05;;;3.90;;
62153;SDS011;48140;45.486;9.226;2023-04-29T05:39:18;8.77;;;4.05;;
62153;SDS011;48140;45.486;9.226;2023-04-29T05:41:46;8.95;;;4.20;;
62153;SDS011;48140;45.486;9.226;2023-04-29T05:44:12;7.07;;;3.95;;
62153;SDS011;48140;45.486;9.226;2023-04-29T05:46:38;7.43;;;4.13;;
62153;SDS011;48140;45.486;9.226;2023-04-29T05:49:04;6.18;;;3.83;;
62153;SDS011;48140;45.486;9.226;2023-04-29T05:51:29;9.35;;;3.78;;
62153;SDS011;48140;45.486;9.226;2023-04-29T05:53:55;7.18;;;3.97;;
62153;SDS011;48140;45.486;9.226;2023-04-29T05:56:23;7.40;;;3.97;;
62153;SDS011;48140;45.486;9.226;2023-04-29T05:58:49;10.38;;;4.03;;
62153;SDS011;48140;45.486;9.226;2023-04-29T06:01:14;9.27;;;4.40;;
62153;SDS011;48140;45.486;9.226;2023-04-29T06:03:41;10.38;;;4.35;;
62153;SDS011;48140;45.486;9.226;2023-04-29T06:06:07;8.52;;;4.28;;
62153;SDS011;48140;45.486;9.226;2023-04-29T06:08:33;6.07;;;4.10;;
62153;SDS011;48140;45.486;9.226;2023-04-29T06:11:00;6.13;;;4.00;;
62153;SDS011;48140;45.486;9.226;2023-04-29T06:13:28;8.75;;;4.18;;
62153;SDS011;48140;45.486;9.226;2023-04-29T06:15:54;7.57;;;4.00;;
62153;SDS011;48140;45.486;9.226;2023-04-29T06:18:20;7.03;;;3.90;;
62153;SDS011;48140;45.486;9.226;2023-04-29T06:20:46;5.78;;;3.55;;
62153;SDS011;48140;45.486;9.226;2023-04-29T06:23:11;8.90;;;3.85;;
62153;SDS011;48140;45.486;9.226;2023-04-29T06:25:37;8.35;;;4.30;;
62153;SDS011;48140;45.486;9.226;2023-04-29T06:28:02;6.53;;;4.10;;
62153;SDS011;48140;45.486;9.226;2023-04-29T06:30:28;9.23;;;4.05;;
62153;SDS011;48140;45.486;9.226;2023-04-29T06:32:54;7.60;;;4.05;;
62153;SDS011;48140;45.486;9.226;2023-04-29T06:35:19;9.25;;;4.25;;
62153;SDS011;48140;45.486;9.226;2023-04-29T06:37:45;11.43;;;4.47;;
62153;SDS011;48140;45.486;9.226;2023-04-29T06:40:11;8.95;;;5.40;;
62153;SDS011;48140;45.486;9.226;2023-04-29T06:42:37;11.55;;;4.95;;
62153;SDS011;48140;45.486;9.226;2023-04-29T06:45:05;8.27;;;4.95;;
62153;SDS011;48140;45.486;9.226;2023-04-29T06:47:31;6.10;;;4.47;;
62153;SDS011;48140;45.486;9.226;2023-04-29T06:49:56;9.38;;;4.65;;
62153;SDS011;48140;45.486;9.226;2023-04-29T06:52:22;8.68;;;4.55;;
62153;SDS011;48140;45.486;9.226;2023-04-29T06:54:48;8.80;;;4.60;;
62153;SDS011;48140;45.486;9.226;2023-04-29T06:57:13;9.68;;;4.82;;
62153;SDS011;48140;45.486;9.226;2023-04-29T06:59:39;9.23;;;5.10;;
62153;SDS011;48140;45.486;9.226;2023-04-29T07:02:05;9.60;;;5.63;;
62153;SDS011;48140;45.486;9.226;2023-04-29T07:04:30;9.35;;;4.95;;
62153;SDS011;48140;45.486;9.226;2023-04-29T07:06:56;15.27;;;5.25;;
62153;SDS011;48140;45.486;9.226;2023-04-29T07:09:23;8.30;;;5.47;;
62153;SDS011;48140;45.486;9.226;2023-04-29T07:11:50;8.90;;;5.47;;
62153;SDS011;48140;45.486;9.226;2023-04-29T07:14:16;10.65;;;5.50;;
62153;SDS011;48140;45.486;9.226;2023-04-29T07:16:41;10.45;;;5.40;;
62153;SDS011;48140;45.486;9.226;2023-04-29T07:19:07;8.60;;;5.30;;
62153;SDS011;48140;45.486;9.226;2023-04-29T07:21:32;9.85;;;5.35;;
62153;SDS011;48140;45.486;9.226;2023-04-29T07:23:58;8.43;;;4.95;;
62153;SDS011;48140;45.486;9.226;2023-04-29T07:26:26;10.02;;;5.55;;
62153;SDS011;48140;45.486;9.226;2023-04-29T07:28:55;7.07;;;4.68;;
62153;SDS011;48140;45.486;9.226;2023-04-29T07:31:21;7.88;;;5.15;;
62153;SDS011;48140;45.486;9.226;2023-04-29T07:33:47;9.35;;;5.15;;
62153;SDS011;48140;45.486;9.226;2023-04-29T07:36:13;9.60;;;5.60;;
62153;SDS011;48140;45.486;9.226;2023-04-29T07:38:39;7.07;;;5.10;;
62153;SDS011;48140;45.486;9.226;2023-04-29T07:41:04;9.80;;;5.30;;
62153;SDS011;48140;45.486;9.226;2023-04-29T07:43:30;11.10;;;5.55;;
62153;SDS011;48140;45.486;9.226;2023-04-29T07:45:56;15.35;;;6.05;;
62153;SDS011;48140;45.486;9.226;2023-04-29T07:48:21;10.25;;;5.60;;
62153;SDS011;48140;45.486;9.226;2023-04-29T07:50:47;9.85;;;5.38;;
62153;SDS011;48140;45.486;9.226;2023-04-29T07:53:13;10.80;;;5.57;;
62153;SDS011;48140;45.486;9.226;2023-04-29T07:55:40;8.40;;;6.22;;
62153;SDS011;48140;45.486;9.226;2023-04-29T07:58:05;12.50;;;5.63;;
62153;SDS011;48140;45.486;9.226;2023-04-29T08:00:32;9.10;;;5.25;;
62153;SDS011;48140;45.486;9.226;2023-04-29T08:02:58;10.45;;;6.10;;
62153;SDS011;48140;45.486;9.226;2023-04-29T08:05:23;9.25;;;5.50;;
62153;SDS011;48140;45.486;9.226;2023-04-29T08:07:50;7.85;;;5.20;;
62153;SDS011;48140;45.486;9.226;2023-04-29T08:10:16;9.77;;;5.07;;
62153;SDS011;48140;45.486;9.226;2023-04-29T08:12:45;8.55;;;4.57;;
62153;SDS011;48140;45.486;9.226;2023-04-29T08:15:11;9.00;;;4.90;;
62153;SDS011;48140;45.486;9.226;2023-04-29T08:17:37;10.38;;;5.38;;
62153;SDS011;48140;45.486;9.226;2023-04-29T08:20:02;10.93;;;4.95;;
62153;SDS011;48140;45.486;9.226;2023-04-29T08:22:28;7.32;;;4.72;;
62153;SDS011;48140;45.486;9.226;2023-04-29T08:24:54;7.07;;;4.68;;
62153;SDS011;48140;45.486;9.226;2023-04-29T08:27:20;12.20;;;5.75;;
62153;SDS011;48140;45.486;9.226;2023-04-29T08:29:46;10.85;;;4.43;;
62153;SDS011;48140;45.486;9.226;2023-04-29T08:32:11;7.30;;;4.53;;
62153;SDS011;48140;45.486;9.226;2023-04-29T08:34:37;9.48;;;5.18;;
62153;SDS011;48140;45.486;9.226;2023-04-29T08:37:03;6.97;;;4.05;;
62153;SDS011;48140;45.486;9.226;2023-04-29T08:39:29;7.63;;;5.20;;
62153;SDS011;48140;45.486;9.226;2023-04-29T08:41:55;10.25;;;4.95;;
62153;SDS011;48140;45.486;9.226;2023-04-29T08:44:22;9.25;;;4.55;;
62153;SDS011;48140;45.486;9.226;2023-04-29T08:46:48;9.10;;;4.90;;
62153;SDS011;48140;45.486;9.226;2023-04-29T08:49:14;9.20;;;5.15;;
62153;SDS011;48140;45.486;9.226;2023-04-29T08:51:40;10.48;;;5.70;;
62153;SDS011;48140;45.486;9.226;2023-04-29T08:54:06;8.20;;;5.05;;
62153;SDS011;48140;45.486;9.226;2023-04-29T08:56:32;8.40;;;5.47;;
62153;SDS011;48140;45.486;9.226;2023-04-29T08:59:01;7.85;;;5.28;;
62153;SDS011;48140;45.486;9.226;2023-04-29T09:01:28;11.48;;;5.72;;
62153;SDS011;48140;45.486;9.226;2023-04-29T09:06:33;8.27;;;5.32;;
62153;SDS011;48140;45.486;9.226;2023-04-29T09:08:59;9.43;;;5.88;;
62153;SDS011;48140;45.486;9.226;2023-04-29T09:11:27;9.88;;;4.72;;
62153;SDS011;48140;45.486;9.226;2023-04-29T09:13:58;10.30;;;5.82;;
62153;SDS011;48140;45.486;9.226;2023-04-29T09:16:25;7.93;;;5.60;;
62153;SDS011;48140;45.486;9.226;2023-04-29T09:18:51;8.27;;;5.30;;
62153;SDS011;48140;45.486;9.226;2023-04-29T09:21:19;10.40;;;5.45;;
62153;SDS011;48140;45.486;9.226;2023-04-29T09:23:47;8.70;;;4.68;;
62153;SDS011;48140;45.486;9.226;2023-04-29T09:26:17;13.35;;;5.47;;
62153;SDS011;48140;45.486;9.226;2023-04-29T09:28:43;8.52;;;5.47;;
62153;SDS011;48140;45.486;9.226;2023-04-29T09:31:11;8.77;;;5.40;;
62153;SDS011;48140;45.486;9.226;2023-04-29T09:33:50;11.20;;;5.82;;
62153;SDS011;48140;45.486;9.226;2023-04-29T09:36:37;9.35;;;5.55;;
62153;SDS011;48140;45.486;9.226;2023-04-29T09:39:14;8.02;;;5.15;;
62153;SDS011;48140;45.486;9.226;2023-04-29T09:44:16;8.90;;;5.25;;
62153;SDS011;48140;45.486;9.226;2023-04-29T09:46:43;9.75;;;5.68;;
62153;SDS011;48140;45.486;9.226;2023-04-29T09:49:22;7.95;;;4.80;;
62153;SDS011;48140;45.486;9.226;2023-04-29T09:54:20;8.32;;;5.35;;
62153;SDS011;48140;45.486;9.226;2023-04-29T09:56:50;9.68;;;5.43;;
62153;SDS011;48140;45.486;9.226;2023-04-29T09:59:17;10.80;;;5.68;;
62153;SDS011;48140;45.486;9.226;2023-04-29T10:01:44;11.30;;;5.50;;
62153;SDS011;48140;45.486;9.226;2023-04-29T10:04:16;8.25;;;5.70;;
62153;SDS011;48140;45.486;9.226;2023-04-29T10:06:43;8.85;;;5.28;;
62153;SDS011;48140;45.486;9.226;2023-04-29T10:09:14;12.35;;;5.88;;
62153;SDS011;48140;45.486;9.226;2023-04-29T10:11:40;11.77;;;5.65;;
62153;SDS011;48140;45.486;9.226;2023-04-29T10:14:14;9.35;;;5.45;;
62153;SDS011;48140;45.486;9.226;2023-04-29T10:16:53;11.10;;;4.90;;
62153;SDS011;48140;45.486;9.226;2023-04-29T10:19:32;11.68;;;6.07;;
62153;SDS011;48140;45.486;9.226;2023-04-29T10:21:59;7.70;;;5.38;;
62153;SDS011;48140;45.486;9.226;2023-04-29T10:24:36;8.68;;;4.63;;
62153;SDS011;48140;45.486;9.226;2023-04-29T10:27:06;8.98;;;4.43;;
62153;SDS011;48140;45.486;9.226;2023-04-29T10:29:36;6.03;;;3.88;;
62153;SDS011;48140;45.486;9.226;2023-04-29T10:32:08;7.53;;;4.57;;
62153;SDS011;48140;45.486;9.226;2023-04-29T10:34:37;6.33;;;3.80;;
62153;SDS011;48140;45.486;9.226;2023-04-29T10:37:05;8.55;;;4.57;;
62153;SDS011;48140;45.486;9.226;2023-04-29T10:40:22;7.97;;;4.67;;
62153;SDS011;48140;45.486;9.226;2023-04-29T10:42:42;9.07;;;4.30;;
62153;SDS011;48140;45.486;9.226;2023-04-29T10:45:16;9.35;;;4.43;;
62153;SDS011;48140;45.486;9.226;2023-04-29T10:48:21;7.65;;;4.40;;
62153;SDS011;48140;45.486;9.226;2023-04-29T10:53:12;9.52;;;4.32;;
62153;SDS011;48140;45.486;9.226;2023-04-29T10:55:45;8.10;;;4.27;;
62153;SDS011;48140;45.486;9.226;2023-04-29T11:00:58;9.05;;;4.93;;
62153;SDS011;48140;45.486;9.226;2023-04-29T11:06:22;7.63;;;5.10;;
62153;SDS011;48140;45.486;9.226;2023-04-29T11:09:17;7.90;;;4.88;;
62153;SDS011;48140;45.486;9.226;2023-04-29T11:11:56;7.88;;;4.35;;
62153;SDS011;48140;45.486;9.226;2023-04-29T11:17:27;7.00;;;4.63;;
62153;SDS011;48140;45.486;9.226;2023-04-29T11:20:00;9.65;;;5.40;;
62153;SDS011;48140;45.486;9.226;2023-04-29T11:22:26;9.55;;;5.38;;
62153;SDS011;48140;45.486;9.226;2023-04-29T11:27:31;10.80;;;6.45;;
62153;SDS011;48140;45.486;9.226;2023-04-29T11:29:58;7.53;;;4.80;;
62153;SDS011;48140;45.486;9.226;2023-04-29T11:32:29;10.02;;;5.55;;
62153;SDS011;48140;45.486;9.226;2023-04-29T11:35:06;11.18;;;5.78;;
62153;SDS011;48140;45.486;9.226;2023-04-29T11:37:33;8.85;;;5.50;;
62153;SDS011;48140;45.486;9.226;2023-04-29T11:39:59;10.80;;;5.30;;
62153;SDS011;48140;45.486;9.226;2023-04-29T11:42:28;10.60;;;4.80;;
62153;SDS011;48140;45.486;9.226;2023-04-29T11:45:18;9.80;;;5.57;;
62153;SDS011;48140;45.486;9.226;2023-04-29T11:47:55;10.32;;;5.80;;
62153;SDS011;48140;45.486;9.226;2023-04-29T11:50:22;9.18;;;5.10;;
62153;SDS011;48140;45.486;9.226;2023-04-29T11:52:50;8.63;;;5.40;;
62153;SDS011;48140;45.486;9.226;2023-04-29T11:55:16;8.38;;;5.38;;
62153;SDS011;48140;45.486;9.226;2023-04-29T11:57:43;8.50;;;5.28;;
62153;SDS011;48140;45.486;9.226;2023-04-29T12:00:13;9.75;;;5.80;;
62153;SDS011;48140;45.486;9.226;2023-04-29T12:07:53;11.68;;;5.07;;
62153;SDS011;48140;45.486;9.226;2023-04-29T12:10:19;9.82;;;5.82;;
62153;SDS011;48140;45.486;9.226;2023-04-29T12:12:47;8.15;;;5.32;;
62153;SDS011;48140;45.486;9.226;2023-04-29T12:15:13;9.45;;;5.03;;
62153;SDS011;48140;45.486;9.226;2023-04-29T12:17:39;7.50;;;4.40;;
62153;SDS011;48140;45.486;9.226;2023-04-29T12:20:06;6.57;;;4.60;;
62153;SDS011;48140;45.486;9.226;2023-04-29T12:22:35;5.97;;;3.80;;
62153;SDS011;48140;45.486;9.226;2023-04-29T12:25:04;9.63;;;4.85;;
62153;SDS011;48140;45.486;9.226;2023-04-29T12:27:31;9.05;;;4.60;;
62153;SDS011;48140;45.486;9.226;2023-04-29T12:30:00;9.02;;;4.25;;
62153;SDS011;48140;45.486;9.226;2023-04-29T12:32:26;7.00;;;3.83;;
62153;SDS011;48140;45.486;9.226;2023-04-29T12:34:52;8.98;;;4.32;;
62153;SDS011;48140;45.486;9.226;2023-04-29T12:37:18;7.50;;;4.20;;
62153;SDS011;48140;45.486;9.226;2023-04-29T12:39:48;6.88;;;3.65;;
62153;SDS011;48140;45.486;9.226;2023-04-29T12:42:14;7.35;;;4.50;;
62153;SDS011;48140;45.486;9.226;2023-04-29T12:44:43;8.00;;;4.40;;
62153;SDS011;48140;45.486;9.226;2023-04-29T12:47:11;11.68;;;5.13;;
62153;SDS011;48140;45.486;9.226;2023-04-29T12:49:40;7.15;;;4.10;;
62153;SDS011;48140;45.486;9.226;2023-04-29T12:52:07;7.70;;;4.10;;
62153;SDS011;48140;45.486;9.226;2023-04-29T12:54:36;6.55;;;3.75;;
62153;SDS011;48140;45.486;9.226;2023-04-29T12:57:04;6.68;;;3.92;;
62153;SDS011;48140;45.486;9.226;2023-04-29T12:59:30;5.93;;;4.10;;
62153;SDS011;48140;45.486;9.226;2023-04-29T13:01:56;8.52;;;4.82;;
62153;SDS011;48140;45.486;9.226;2023-04-29T13:04:21;8.48;;;4.00;;
62153;SDS011;48140;45.486;9.226;2023-04-29T13:06:47;6.15;;;4.00;;
62153;SDS011;48140;45.486;9.226;2023-04-29T13:09:13;6.70;;;4.38;;
62153;SDS011;48140;45.486;9.226;2023-04-29T13:11:38;7.53;;;4.10;;
62153;SDS011;48140;45.486;9.226;2023-04-29T13:14:04;7.00;;;3.65;;
62153;SDS011;48140;45.486;9.226;2023-04-29T13:16:31;6.13;;;3.65;;
62153;SDS011;48140;45.486;9.226;2023-04-29T13:18:58;6.50;;;3.78;;
62153;SDS011;48140;45.486;9.226;2023-04-29T13:21:24;7.75;;;3.30;;
62153;SDS011;48140;45.486;9.226;2023-04-29T13:23:49;6.68;;;3.75;;
62153;SDS011;48140;45.486;9.226;2023-04-29T13:26:16;6.00;;;3.25;;
62153;SDS011;48140;45.486;9.226;2023-04-29T13:28:42;5.35;;;3.28;;
62153;SDS011;48140;45.486;9.226;2023-04-29T13:31:08;5.88;;;3.78;;
62153;SDS011;48140;45.486;9.226;2023-04-29T13:33:33;7.82;;;3.42;;
62153;SDS011;48140;45.486;9.226;2023-04-29T13:35:59;6.45;;;3.78;;
62153;SDS011;48140;45.486;9.226;2023-04-29T13:38:24;6.75;;;3.83;;
62153;SDS011;48140;45.486;9.226;2023-04-29T13:40:50;7.78;;;3.55;;
62153;SDS011;48140;45.486;9.226;2023-04-29T13:43:16;7.82;;;3.72;;
62153;SDS011;48140;45.486;9.226;2023-04-29T13:45:41;7.13;;;3.53;;
62153;SDS011;48140;45.486;9.226;2023-04-29T13:48:07;5.95;;;3.50;;
62153;SDS011;48140;45.486;9.226;2023-04-29T13:50:32;5.53;;;3.35;;
62153;SDS011;48140;45.486;9.226;2023-04-29T13:52:59;8.95;;;3.40;;
62153;SDS011;48140;45.486;9.226;2023-04-29T13:55:24;7.95;;;4.35;;
62153;SDS011;48140;45.486;9.226;2023-04-29T13:57:50;7.13;;;3.97;;
62153;SDS011;48140;45.486;9.226;2023-04-29T14:00:17;5.63;;;3.50;;
62153;SDS011;48140;45.486;9.226;2023-04-29T14:02:43;7.93;;;3.83;;
62153;SDS011;48140;45.486;9.226;2023-04-29T14:05:08;6.00;;;3.58;;
62153;SDS011;48140;45.486;9.226;2023-04-29T14:07:34;7.45;;;4.22;;
62153;SDS011;48140;45.486;9.226;2023-04-29T14:10:00;7.68;;;3.85;;
62153;SDS011;48140;45.486;9.226;2023-04-29T14:12:26;6.93;;;4.10;;
62153;SDS011;48140;45.486;9.226;2023-04-29T14:14:51;6.60;;;4.20;;
62153;SDS011;48140;45.486;9.226;2023-04-29T14:17:17;10.05;;;4.68;;
62153;SDS011;48140;45.486;9.226;2023-04-29T14:19:43;8.02;;;4.18;;
62153;SDS011;48140;45.486;9.226;2023-04-29T14:22:08;7.68;;;3.40;;
62153;SDS011;48140;45.486;9.226;2023-04-29T14:24:34;7.43;;;4.60;;
62153;SDS011;48140;45.486;9.226;2023-04-29T14:26:59;6.20;;;4.28;;
62153;SDS011;48140;45.486;9.226;2023-04-29T14:29:26;8.13;;;4.07;;
62153;SDS011;48140;45.486;9.226;2023-04-29T14:31:51;8.65;;;4.45;;
62153;SDS011;48140;45.486;9.226;2023-04-29T14:34:17;7.57;;;4.57;;
62153;SDS011;48140;45.486;9.226;2023-04-29T14:36:44;6.68;;;4.10;;
62153;SDS011;48140;45.486;9.226;2023-04-29T14:39:10;9.10;;;4.32;;
62153;SDS011;48140;45.486;9.226;2023-04-29T14:41:36;8.43;;;4.28;;
62153;SDS011;48140;45.486;9.226;2023-04-29T14:44:02;7.93;;;4.00;;
62153;SDS011;48140;45.486;9.226;2023-04-29T14:46:28;6.90;;;4.15;;
62153;SDS011;48140;45.486;9.226;2023-04-29T14:48:55;8.25;;;4.55;;
62153;SDS011;48140;45.486;9.226;2023-04-29T14:51:20;9.05;;;4.38;;
62153;SDS011;48140;45.486;9.226;2023-04-29T14:53:46;5.93;;;3.85;;
62153;SDS011;48140;45.486;9.226;2023-04-29T14:56:12;6.47;;;4.15;;
62153;SDS011;48140;45.486;9.226;2023-04-29T14:58:37;7.00;;;3.90;;
62153;SDS011;48140;45.486;9.226;2023-04-29T15:01:03;7.95;;;4.30;;
62153;SDS011;48140;45.486;9.226;2023-04-29T15:03:29;8.15;;;4.47;;
62153;SDS011;48140;45.486;9.226;2023-04-29T15:05:57;8.15;;;4.38;;
62153;SDS011;48140;45.486;9.226;2023-04-29T15:08:22;8.75;;;4.47;;
62153;SDS011;48140;45.486;9.226;2023-04-29T15:10:48;8.52;;;4.35;;
62153;SDS011;48140;45.486;9.226;2023-04-29T15:13:14;8.10;;;4.30;;
62153;SDS011;48140;45.486;9.226;2023-04-29T15:15:40;6.38;;;4.38;;
62153;SDS011;48140;45.486;9.226;2023-04-29T15:18:05;9.13;;;4.63;;
62153;SDS011;48140;45.486;9.226;2023-04-29T15:20:32;5.88;;;4.15;;
62153;SDS011;48140;45.486;9.226;2023-04-29T15:22:59;10.93;;;4.78;;
62153;SDS011;48140;45.486;9.226;2023-04-29T15:25:25;7.75;;;4.82;;
62153;SDS011;48140;45.486;9.226;2023-04-29T15:27:50;13.40;;;5.32;;
62153;SDS011;48140;45.486;9.226;2023-04-29T15:30:16;6.75;;;4.28;;
62153;SDS011;48140;45.486;9.226;2023-04-29T15:32:42;8.70;;;4.40;;
62153;SDS011;48140;45.486;9.226;2023-04-29T15:35:08;6.85;;;4.18;;
62153;SDS011;48140;45.486;9.226;2023-04-29T15:37:34;7.43;;;4.20;;
62153;SDS011;48140;45.486;9.226;2023-04-29T15:40:00;8.50;;;4.82;;
62153;SDS011;48140;45.486;9.226;2023-04-29T15:42:26;9.98;;;4.85;;
62153;SDS011;48140;45.486;9.226;2023-04-29T15:44:52;9.70;;;4.82;;
62153;SDS011;48140;45.486;9.226;2023-04-29T15:47:18;6.72;;;4.15;;
62153;SDS011;48140;45.486;9.226;2023-04-29T15:49:43;7.18;;;4.43;;
62153;SDS011;48140;45.486;9.226;2023-04-29T15:52:09;6.90;;;4.45;;
62153;SDS011;48140;45.486;9.226;2023-04-29T15:54:35;7.75;;;4.82;;
62153;SDS011;48140;45.486;9.226;2023-04-29T15:57:01;7.82;;;5.20;;
62153;SDS011;48140;45.486;9.226;2023-04-29T15:59:28;9.45;;;5.05;;
62153;SDS011;48140;45.486;9.226;2023-04-29T16:01:54;11.82;;;5.20;;
62153;SDS011;48140;45.486;9.226;2023-04-29T16:04:20;7.72;;;4.80;;
62153;SDS011;48140;45.486;9.226;2023-04-29T16:06:46;7.78;;;4.70;;
62153;SDS011;48140;45.486;9.226;2023-04-29T16:09:11;7.78;;;5.07;;
62153;SDS011;48140;45.486;9.226;2023-04-29T16:11:37;10.55;;;5.13;;
62153;SDS011;48140;45.486;9.226;2023-04-29T16:14:02;9.38;;;5.90;;
62153;SDS011;48140;45.486;9.226;2023-04-29T16:16:28;7.75;;;5.65;;
62153;SDS011;48140;45.486;9.226;2023-04-29T16:18:54;9.68;;;5.82;;